Aérodrome :
LOGIN :

S'inscrire | Disclaimer

   EN    FR    IT 

 










Légende :    VFR   VFR Marginal   IFR   IFR Intensif   IFR Très Intensif
Visi : 
Plafond : 
>= 8 km
>= 3000ft
5 à 8 km
1000 à 3000 ft
1500m à 5 km
500 à 1000 ft
800 à 1500m
200 à 500 ft
< 800m
< 200 ft
Symboles :   Orages  Brouillard  Fortes neiges  Fortes précipitations  Vent > 20 kt
SIGMETs :   Divers  Orages  Givrage  Turbulence  Onde Orograph.  Cendres Volcan.






- Altitude de l'aérodrome : 896 ft


LOAN - Wiener Neustadt East

DERNIER METAR :
  • 171300Z 36005KT 10KM FEW030CU BKN300CI

METARs EXPIRÉS :
  • 171200Z 36005KT 10KM FEW030CU BKN300CI
  • 171100Z 10004KT 3500 BR SCT003 BKN010

TAF TAF LOAN
Valide du 17 à 12h jusqu'au 17 à 21h UTC


171125Z 1712/1721 10006KT 3500 BR SCT003 BKN010
BECMG 1712/1713 9999 NSW FEW030 SCT300



MET'MAP, la Météo Aéronautique d'un coup d'oeil ! - Copyright ORBIFLY Décembre 2007 - Disclaimer

ORBIFLY MET'MAP TEAM :

Programmation & Développement : Alexandra Zaïnal
Conception & Développement : Baudouin d'Aumeries
Co-Programmation & Développement : Marc-Olivier Méhu
Soutien technique & logistique : Manuel Goepfert

Contact : metmap@orbifly.com




SOURCES & CREDITS :

   NOAA